Time;durP1;ratioP1;P1;durP2;ratioP2;P2;SDS_P1;SDS_P2;PMS_P1;PMS_P2;Temp;Humidity;BMP_temperature;BMP_pressure;BME280_temperature;BME280_humidity;BME280_pressure;Samples;Min_cycle;Max_cycle;Signal;HPM_P1;HPM_P2
2023/02/07 00:01:12;;;;;;;48.03;22.00;;;1.20;99.90;;;;;;5028948;28;20186;-87
2023/02/07 00:03:41;;;;;;;44.47;19.67;;;1.30;99.90;;;;;;5030735;28;20930;-85
2023/02/07 00:06:10;;;;;;;45.53;22.70;;;1.40;99.90;;;;;;5029510;28;20466;-85
2023/02/07 00:08:39;;;;;;;56.42;27.55;;;1.30;99.90;;;;;;5029889;28;20234;-86
2023/02/07 00:11:07;;;;;;;50.60;23.58;;;1.30;99.90;;;;;;5029712;28;20269;-86
2023/02/07 00:13:34;;;;;;;49.43;23.43;;;1.30;99.90;;;;;;5033025;28;20207;-84
2023/02/07 00:16:02;;;;;;;55.40;22.47;;;1.40;99.90;;;;;;5019376;28;20504;-85
2023/02/07 00:18:28;;;;;;;50.13;23.85;;;1.40;99.90;;;;;;5034941;28;20461;-86
2023/02/07 00:21:01;;;;;;;46.00;21.70;;;1.40;99.90;;;;;;5027570;28;20261;-84
2023/02/07 00:23:28;;;;;;;38.70;20.00;;;1.50;99.90;;;;;;5009719;28;20472;-84
2023/02/07 00:25:55;;;;;;;36.40;17.75;;;1.50;99.90;;;;;;5001594;28;20960;-84
2023/02/07 00:28:22;;;;;;;37.95;19.85;;;1.50;99.90;;;;;;5003377;28;20310;-82
2023/02/07 00:30:49;;;;;;;37.37;19.87;;;1.60;99.90;;;;;;5004437;28;20226;-83
2023/02/07 00:33:16;;;;;;;42.40;20.73;;;1.50;99.90;;;;;;5020791;28;20545;-83
2023/02/07 00:35:44;;;;;;;35.20;17.25;;;1.60;99.90;;;;;;5023930;28;20552;-85
2023/02/07 00:38:12;;;;;;;32.63;18.03;;;1.60;99.90;;;;;;5024206;28;20577;-84
2023/02/07 00:40:39;;;;;;;36.42;20.15;;;1.50;99.90;;;;;;5029149;28;20452;-84
2023/02/07 00:43:06;;;;;;;33.83;18.98;;;1.50;99.90;;;;;;5029644;28;20359;-85
2023/02/07 00:45:33;;;;;;;40.60;21.53;;;1.50;99.90;;;;;;5027591;28;20206;-84
2023/02/07 00:48:00;;;;;;;31.60;18.40;;;1.60;99.90;;;;;;5025818;28;20485;-85
2023/02/07 00:50:27;;;;;;;28.88;15.60;;;1.60;99.90;;;;;;5028561;28;20533;-84
2023/02/07 00:52:54;;;;;;;39.10;19.40;;;1.60;99.90;;;;;;5027886;28;20202;-88
2023/02/07 00:55:22;;;;;;;39.90;19.93;;;1.50;99.90;;;;;;5028525;28;20482;-86
2023/02/07 00:57:50;;;;;;;36.97;18.67;;;1.50;99.90;;;;;;5022187;28;20543;-85
2023/02/07 01:00:17;;;;;;;35.43;19.50;;;1.50;99.90;;;;;;5030231;28;20453;-85
2023/02/07 01:02:44;;;;;;;37.70;19.33;;;1.40;99.90;;;;;;5023418;28;20449;-85
2023/02/07 01:05:11;;;;;;;38.45;17.35;;;1.50;99.90;;;;;;5023490;28;20507;-85
2023/02/07 01:07:38;;;;;;;34.90;17.77;;;1.50;99.90;;;;;;5028446;28;20214;-86
2023/02/07 01:10:05;;;;;;;30.15;17.13;;;1.50;99.90;;;;;;5031835;28;20457;-88
2023/02/07 01:12:34;;;;;;;32.15;18.38;;;1.50;99.90;;;;;;5029771;28;20207;-85
2023/02/07 01:15:01;;;;;;;34.00;18.90;;;1.50;99.90;;;;;;5026021;28;20202;-87
2023/02/07 01:17:28;;;;;;;30.52;18.15;;;1.50;99.90;;;;;;5020769;28;20460;-83
2023/02/07 01:19:57;;;;;;;35.20;17.70;;;1.40;99.90;;;;;;5021919;28;20277;-84
2023/02/07 01:22:24;;;;;;;26.63;16.40;;;1.40;99.90;;;;;;5021662;28;20498;-84
2023/02/07 01:24:53;;;;;;;37.17;17.83;;;1.30;99.90;;;;;;5023224;28;20449;-86
2023/02/07 01:27:20;;;;;;;34.50;17.60;;;1.20;99.90;;;;;;5022017;28;20512;-84
2023/02/07 01:29:48;;;;;;;39.20;17.63;;;1.30;99.90;;;;;;5019657;28;20754;-84
2023/02/07 01:32:16;;;;;;;35.93;17.60;;;1.30;99.90;;;;;;5018230;28;20268;-84
2023/02/07 01:34:43;;;;;;;32.42;17.20;;;1.40;99.90;;;;;;5019268;28;20492;-83
2023/02/07 01:37:10;;;;;;;31.63;17.85;;;1.40;99.90;;;;;;5018998;28;20281;-83
2023/02/07 01:39:37;;;;;;;34.07;19.43;;;1.30;99.90;;;;;;5018476;28;20274;-84
2023/02/07 01:42:04;;;;;;;33.60;17.50;;;1.20;99.90;;;;;;5018521;28;20790;-84
2023/02/07 01:45:00;;;;;;;30.90;17.53;;;1.20;99.90;;;;;;5020147;28;20233;-85
2023/02/07 01:47:28;;;;;;;29.10;16.60;;;1.20;99.90;;;;;;5020641;28;20450;-84
2023/02/07 01:49:57;;;;;;;25.42;14.70;;;1.20;99.90;;;;;;5016691;28;20497;-85
2023/02/07 01:52:27;;;;;;;35.20;17.27;;;1.00;99.90;;;;;;5018943;28;20234;-85
2023/02/07 01:54:58;;;;;;;32.97;16.80;;;1.00;99.90;;;;;;5017804;28;20237;-83
2023/02/07 01:57:25;;;;;;;25.45;14.45;;;0.90;99.90;;;;;;5018871;28;20277;-84
2023/02/07 01:59:55;;;;;;;27.48;15.25;;;0.80;99.90;;;;;;5019263;28;20592;-85
2023/02/07 02:02:25;;;;;;;25.83;14.95;;;0.80;99.90;;;;;;5022200;28;20223;-84
2023/02/07 02:04:54;;;;;;;28.67;14.73;;;0.80;99.90;;;;;;5021374;28;20239;-84
2023/02/07 02:07:23;;;;;;;29.33;16.23;;;0.90;99.90;;;;;;5020048;28;20202;-85
2023/02/07 02:09:50;;;;;;;31.30;16.42;;;0.90;99.90;;;;;;5019443;28;20269;-84
2023/02/07 02:12:41;;;;;;;36.08;17.38;;;0.80;99.90;;;;;;5019128;28;20243;-84
2023/02/07 02:15:24;;;;;;;30.27;17.10;;;0.80;99.90;;;;;;5019280;28;20579;-84
2023/02/07 02:18:03;;;;;;;33.50;17.58;;;0.80;99.90;;;;;;5019840;28;20230;-85
2023/02/07 02:21:12;;;;;;;25.00;15.53;;;0.70;99.90;;;;;;5023706;28;20225;-84
2023/02/07 02:23:58;;;;;;;28.13;15.10;;;0.70;99.90;;;;;;5031131;28;20469;-87
2023/02/07 02:27:04;;;;;;;28.23;15.73;;;0.60;99.90;;;;;;5039915;28;20210;-89
2023/02/07 02:30:00;;;;;;;22.10;14.07;;;0.60;99.90;;;;;;5013673;28;20260;-84
2023/02/07 02:33:06;;;;;;;27.05;15.50;;;0.50;99.90;;;;;;5030339;28;20854;-87
2023/02/07 02:35:37;;;;;;;22.58;14.77;;;0.40;99.90;;;;;;5031205;28;20201;-86
2023/02/07 02:38:14;;;;;;;30.67;17.02;;;0.50;99.90;;;;;;5031868;28;20249;-87
2023/02/07 02:40:48;;;;;;;35.97;18.67;;;0.50;99.90;;;;;;5038645;28;20206;-87
2023/02/07 02:43:21;;;;;;;32.85;17.58;;;0.40;99.90;;;;;;5033149;28;20190;-87
2023/02/07 02:45:53;;;;;;;30.23;16.38;;;0.40;99.90;;;;;;5032141;28;20203;-88
2023/02/07 02:48:22;;;;;;;33.10;16.58;;;0.40;99.90;;;;;;5020295;28;20215;-88
2023/02/07 02:50:51;;;;;;;32.30;17.55;;;0.30;99.90;;;;;;5034826;28;20550;-86
2023/02/07 02:53:18;;;;;;;31.27;17.17;;;0.30;99.90;;;;;;5017953;28;20209;-85
2023/02/07 02:56:37;;;;;;;32.20;17.45;;;0.20;99.90;;;;;;5017278;28;20220;-86
2023/02/07 02:59:21;;;;;;;30.95;17.90;;;0.20;99.90;;;;;;4942398;29;20390;-87
2023/02/07 03:01:56;;;;;;;29.17;15.85;;;0.20;99.90;;;;;;4959509;29;20213;-85
2023/02/07 03:04:39;;;;;;;28.15;16.58;;;0.20;99.90;;;;;;4995469;28;20296;-85
2023/02/07 03:07:21;;;;;;;31.27;17.55;;;0.10;99.90;;;;;;5024596;28;20206;-84
2023/02/07 03:09:54;;;;;;;33.10;16.95;;;0.10;99.90;;;;;;5000577;28;20219;-87
2023/02/07 03:12:28;;;;;;;25.15;15.32;;;0.00;99.90;;;;;;5016432;28;20204;-87
2023/02/07 03:15:01;;;;;;;32.92;17.50;;;0.00;99.90;;;;;;5021973;28;20309;-87
2023/02/07 03:17:32;;;;;;;34.75;16.98;;;0.00;99.90;;;;;;5035029;28;20838;-87
2023/02/07 03:20:07;;;;;;;28.00;17.10;;;-0.20;99.90;;;;;;5033860;28;20775;-87
2023/02/07 03:22:36;;;;;;;31.10;16.45;;;-0.20;99.90;;;;;;5020463;28;20304;-86
2023/02/07 03:25:07;;;;;;;32.45;16.13;;;-0.20;99.90;;;;;;5010262;28;20295;-85
2023/02/07 03:27:36;;;;;;;31.55;17.48;;;-0.20;99.90;;;;;;4997519;28;20234;-86
2023/02/07 03:30:08;;;;;;;29.42;15.45;;;-0.20;99.90;;;;;;5004044;28;20670;-86
2023/02/07 03:32:39;;;;;;;31.90;16.83;;;-0.30;99.90;;;;;;5016640;28;20215;-86
2023/02/07 03:35:12;;;;;;;33.13;16.63;;;-0.30;99.90;;;;;;5018015;28;20222;-86
2023/02/07 03:37:42;;;;;;;29.15;15.75;;;-0.30;99.90;;;;;;5017499;28;20256;-87
2023/02/07 03:40:10;;;;;;;33.72;15.55;;;-0.30;99.90;;;;;;5016798;28;20241;-86
2023/02/07 03:42:42;;;;;;;28.35;14.95;;;-0.30;99.90;;;;;;5017625;28;20713;-87
2023/02/07 03:45:12;;;;;;;28.92;16.35;;;-0.30;99.90;;;;;;5017375;28;20222;-85
2023/02/07 03:47:39;;;;;;;31.20;15.52;;;-0.40;99.90;;;;;;5017707;28;20276;-84
2023/02/07 03:50:08;;;;;;;34.83;17.00;;;-0.40;99.90;;;;;;5015973;28;20287;-84
2023/02/07 03:52:35;;;;;;;33.38;14.90;;;-0.50;99.90;;;;;;5016570;28;20800;-85
2023/02/07 03:55:02;;;;;;;33.65;16.52;;;-0.40;99.90;;;;;;5017215;28;20245;-85
2023/02/07 03:57:29;;;;;;;29.88;16.55;;;-0.50;99.90;;;;;;5016792;28;20224;-84
2023/02/07 03:59:56;;;;;;;31.25;15.93;;;-0.50;99.90;;;;;;5016537;28;20237;-80
2023/02/07 04:02:22;;;;;;;28.83;16.48;;;-0.50;99.90;;;;;;5016628;28;20236;-82
2023/02/07 04:04:55;;;;;;;27.83;15.68;;;-0.40;99.90;;;;;;5014395;28;20625;-84
2023/02/07 04:07:23;;;;;;;33.13;16.38;;;-0.50;99.90;;;;;;5017861;28;20213;-84
2023/02/07 04:09:50;;;;;;;30.50;16.15;;;-0.60;99.90;;;;;;5019867;28;20713;-84
2023/02/07 04:12:17;;;;;;;33.58;17.77;;;-0.60;99.90;;;;;;5017464;28;20244;-83
2023/02/07 04:14:44;;;;;;;30.10;16.10;;;-0.60;99.90;;;;;;5028712;28;20292;-86
2023/02/07 04:17:11;;;;;;;32.58;17.52;;;-0.70;99.90;;;;;;5030613;28;20259;-86
2023/02/07 04:19:38;;;;;;;30.05;16.23;;;-0.70;99.90;;;;;;5030823;28;20231;-86
2023/02/07 04:22:04;;;;;;;27.23;14.65;;;-0.70;99.90;;;;;;5030241;28;20202;-86
2023/02/07 04:24:35;;;;;;;29.95;15.50;;;-0.70;99.90;;;;;;5029491;28;20215;-85
2023/02/07 04:27:02;;;;;;;24.73;15.27;;;-0.70;99.90;;;;;;5028309;28;20204;-84
2023/02/07 04:29:29;;;;;;;27.00;14.00;;;-0.70;99.90;;;;;;5012754;28;20235;-85
2023/02/07 04:31:55;;;;;;;23.50;13.23;;;-0.70;99.90;;;;;;5032923;28;20913;-88
2023/02/07 04:34:22;;;;;;;27.00;14.48;;;-0.70;99.90;;;;;;5037568;28;20226;-81
2023/02/07 04:36:50;;;;;;;26.17;14.23;;;-0.70;99.90;;;;;;5033526;28;20232;-88
2023/02/07 04:39:17;;;;;;;22.17;13.68;;;-0.70;99.90;;;;;;5038735;28;20212;-88
2023/02/07 04:41:45;;;;;;;32.83;13.70;;;-0.80;99.90;;;;;;5039049;28;20184;-90
2023/02/07 04:44:12;;;;;;;24.15;12.68;;;-0.80;99.90;;;;;;5036986;28;20199;-87
2023/02/07 04:46:39;;;;;;;23.63;14.13;;;-0.80;99.90;;;;;;5031843;28;20202;-88
2023/02/07 04:49:06;;;;;;;24.02;13.68;;;-0.90;99.90;;;;;;5030919;28;20281;-87
2023/02/07 04:51:33;;;;;;;19.77;12.38;;;-0.80;99.90;;;;;;5030984;28;20220;-86
2023/02/07 04:54:00;;;;;;;22.23;13.10;;;-0.80;99.90;;;;;;5028002;28;20212;-86
2023/02/07 04:56:27;;;;;;;21.20;12.00;;;-0.90;99.90;;;;;;5027374;28;20299;-88
2023/02/07 04:58:55;;;;;;;23.02;12.25;;;-0.90;99.90;;;;;;5027996;28;20242;-85
2023/02/07 05:01:22;;;;;;;22.17;12.43;;;-0.90;99.90;;;;;;5026657;28;20204;-87
2023/02/07 05:03:49;;;;;;;25.70;13.18;;;-0.90;99.90;;;;;;5019746;28;20209;-88
2023/02/07 05:06:17;;;;;;;26.85;11.77;;;-0.90;99.90;;;;;;5026707;28;20218;-87
2023/02/07 05:08:44;;;;;;;25.30;12.52;;;-0.90;99.90;;;;;;5027107;28;20251;-88
2023/02/07 05:11:10;;;;;;;25.67;14.32;;;-0.90;99.90;;;;;;5027006;28;20205;-88
2023/02/07 05:13:37;;;;;;;21.65;12.18;;;-0.90;99.90;;;;;;5027521;28;20263;-88
2023/02/07 05:16:06;;;;;;;23.30;13.07;;;-1.00;99.90;;;;;;5026951;28;20246;-86
2023/02/07 05:18:33;;;;;;;20.27;11.60;;;-1.00;99.90;;;;;;5034598;28;20234;-88
2023/02/07 05:21:00;;;;;;;29.77;12.13;;;-1.00;99.90;;;;;;5021695;28;20247;-87
2023/02/07 05:23:28;;;;;;;16.70;10.60;;;-1.00;99.90;;;;;;5018832;28;20224;-85
2023/02/07 05:25:54;;;;;;;21.48;12.73;;;-1.00;99.90;;;;;;5018512;28;20262;-86
2023/02/07 05:28:22;;;;;;;21.48;12.07;;;-1.10;99.90;;;;;;5019800;28;20225;-86
2023/02/07 05:30:52;;;;;;;24.77;11.95;;;-1.00;99.90;;;;;;5025204;28;20207;-86
2023/02/07 05:33:19;;;;;;;17.10;9.63;;;-1.00;99.90;;;;;;5029767;28;20235;-86
2023/02/07 05:35:46;;;;;;;16.65;10.50;;;-1.00;99.90;;;;;;5034307;28;20362;-90
2023/02/07 05:38:16;;;;;;;20.35;11.35;;;-1.00;99.90;;;;;;5036347;28;20227;-89
2023/02/07 05:40:43;;;;;;;22.95;10.73;;;-1.10;99.90;;;;;;5024997;28;20214;-87
2023/02/07 05:43:11;;;;;;;19.52;9.93;;;-1.00;99.90;;;;;;5021004;28;20208;-85
2023/02/07 05:45:38;;;;;;;18.45;11.40;;;-1.10;99.90;;;;;;5020357;28;20274;-85
2023/02/07 05:50:34;;;;;;;17.77;11.65;;;-1.00;99.90;;;;;;5032296;28;20449;-84
2023/02/07 05:53:02;;;;;;;16.95;11.30;;;-1.00;99.90;;;;;;5035921;28;20290;-84
2023/02/07 05:55:28;;;;;;;18.38;10.85;;;-0.90;99.90;;;;;;5035260;28;20292;-84
2023/02/07 05:57:55;;;;;;;15.15;9.70;;;-1.10;99.90;;;;;;5036415;28;20228;-84
2023/02/07 06:00:22;;;;;;;19.85;11.52;;;-1.10;99.90;;;;;;5036883;28;20299;-85
2023/02/07 06:02:49;;;;;;;19.25;11.38;;;-1.10;99.90;;;;;;5036413;28;20230;-85
2023/02/07 06:05:19;;;;;;;16.02;10.35;;;-1.10;99.90;;;;;;5038957;28;20237;-85
2023/02/07 06:07:47;;;;;;;16.58;10.65;;;-1.10;99.90;;;;;;5055457;28;20207;-84
2023/02/07 06:10:14;;;;;;;15.48;9.55;;;-1.10;99.90;;;;;;5035510;28;20425;-84
2023/02/07 06:12:41;;;;;;;17.17;11.20;;;-1.10;99.90;;;;;;5034722;28;20208;-83
2023/02/07 06:15:09;;;;;;;23.10;10.80;;;-1.10;99.90;;;;;;5034899;28;20623;-83
2023/02/07 06:17:35;;;;;;;18.45;10.77;;;-1.10;99.90;;;;;;5034900;28;20234;-85
2023/02/07 06:20:02;;;;;;;19.63;11.25;;;-1.10;99.90;;;;;;5034384;28;20315;-84
2023/02/07 06:22:29;;;;;;;15.70;8.95;;;-1.10;99.90;;;;;;5034285;28;20666;-84
2023/02/07 06:24:57;;;;;;;19.85;11.20;;;-1.10;99.90;;;;;;5034411;28;20293;-83
2023/02/07 06:27:24;;;;;;;17.83;11.00;;;-1.20;99.90;;;;;;5035003;28;20230;-83
2023/02/07 06:29:51;;;;;;;18.02;9.52;;;-1.20;99.90;;;;;;5033668;28;20223;-84
2023/02/07 06:32:18;;;;;;;23.17;10.85;;;-1.20;99.90;;;;;;5027690;28;20643;-83
2023/02/07 06:34:45;;;;;;;19.60;10.55;;;-1.20;99.90;;;;;;5030104;28;20219;-82
2023/02/07 06:37:11;;;;;;;25.58;12.40;;;-1.20;99.90;;;;;;5034174;28;20663;-84
2023/02/07 06:39:38;;;;;;;20.80;10.07;;;-1.20;99.90;;;;;;5032923;28;20223;-84
2023/02/07 06:42:06;;;;;;;16.05;10.23;;;-1.20;99.90;;;;;;5033963;28;20204;-85
2023/02/07 06:44:36;;;;;;;16.63;9.73;;;-1.20;99.90;;;;;;5034203;28;20670;-83
2023/02/07 06:47:03;;;;;;;17.45;9.77;;;-1.10;99.90;;;;;;5034836;28;20723;-83
2023/02/07 06:49:29;;;;;;;14.07;9.07;;;-1.20;99.90;;;;;;5033770;28;21612;-85
2023/02/07 06:51:56;;;;;;;15.48;9.30;;;-1.10;99.90;;;;;;5023127;28;20666;-87
2023/02/07 06:54:23;;;;;;;14.55;9.10;;;-1.10;99.90;;;;;;5033327;28;20231;-87
2023/02/07 06:56:50;;;;;;;21.85;9.35;;;-1.20;99.90;;;;;;5033715;28;20275;-86
2023/02/07 06:59:18;;;;;;;19.77;10.25;;;-1.10;99.90;;;;;;5032969;28;20304;-87
2023/02/07 07:01:45;;;;;;;16.33;10.38;;;-1.10;99.90;;;;;;5030108;28;20298;-86
2023/02/07 07:04:12;;;;;;;17.63;10.30;;;-1.00;99.90;;;;;;5033303;28;20262;-85
2023/02/07 07:06:39;;;;;;;15.55;9.90;;;-1.00;99.90;;;;;;5036328;28;20695;-86
2023/02/07 07:09:06;;;;;;;15.48;10.35;;;-1.00;99.90;;;;;;5036340;28;20288;-85
2023/02/07 07:11:32;;;;;;;17.30;9.70;;;-1.00;99.90;;;;;;5024303;28;20603;-84
2023/02/07 07:14:01;;;;;;;17.52;9.20;;;-1.00;99.90;;;;;;5018407;28;20246;-85
2023/02/07 07:16:29;;;;;;;14.13;9.57;;;-0.90;99.90;;;;;;5036445;28;20269;-87
2023/02/07 07:18:56;;;;;;;13.68;9.48;;;-0.90;99.90;;;;;;5029623;28;20270;-85
2023/02/07 07:21:23;;;;;;;12.43;8.27;;;-0.90;99.90;;;;;;5034901;28;20213;-86
2023/02/07 07:23:50;;;;;;;14.25;9.68;;;-0.90;99.90;;;;;;5033477;28;20243;-87
2023/02/07 07:26:16;;;;;;;15.45;10.00;;;-0.90;99.90;;;;;;5021310;28;20676;-87
2023/02/07 07:28:43;;;;;;;12.18;8.27;;;-0.90;99.90;;;;;;5025602;28;20241;-87
2023/02/07 07:31:10;;;;;;;14.80;10.40;;;-0.80;99.90;;;;;;5021804;28;20219;-87
2023/02/07 07:33:38;;;;;;;15.57;10.07;;;-0.90;99.90;;;;;;5031058;28;20233;-87
2023/02/07 07:36:06;;;;;;;12.43;8.98;;;-0.90;99.90;;;;;;5026943;28;20238;-86
2023/02/07 07:38:35;;;;;;;17.80;9.60;;;-0.80;99.90;;;;;;5025568;28;20299;-85
2023/02/07 07:41:01;;;;;;;13.68;8.32;;;-0.80;99.90;;;;;;5026286;28;20212;-85
2023/02/07 07:43:54;;;;;;;15.00;8.60;;;-0.70;99.90;;;;;;5030263;28;20302;-87
2023/02/07 07:46:21;;;;;;;17.50;10.23;;;-0.70;99.90;;;;;;5020732;28;20295;-87
2023/02/07 07:48:54;;;;;;;16.75;10.40;;;-0.70;99.90;;;;;;5021304;28;20735;-87
2023/02/07 07:51:24;;;;;;;14.00;8.35;;;-0.70;99.90;;;;;;5024258;28;20208;-86
2023/02/07 07:54:00;;;;;;;14.77;8.98;;;-0.70;99.90;;;;;;5018127;28;20235;-86
2023/02/07 07:56:30;;;;;;;13.43;8.65;;;-0.60;99.90;;;;;;5030006;28;20220;-86
2023/02/07 07:58:57;;;;;;;16.73;9.05;;;-0.60;99.90;;;;;;5021738;28;20284;-85
2023/02/07 08:01:28;;;;;;;17.67;9.27;;;-0.50;99.90;;;;;;5031183;28;20202;-86
2023/02/07 08:03:58;;;;;;;20.00;7.80;;;-0.50;99.90;;;;;;5030484;28;20512;-87
2023/02/07 08:06:28;;;;;;;14.30;8.27;;;-0.50;99.90;;;;;;5023662;28;20207;-86
2023/02/07 08:09:00;;;;;;;13.48;9.10;;;-0.40;99.90;;;;;;5015491;28;20335;-86
2023/02/07 08:11:32;;;;;;;12.80;8.68;;;-0.40;99.90;;;;;;5020988;28;20490;-86
2023/02/07 08:14:12;;;;;;;14.27;8.38;;;-0.40;99.90;;;;;;5027911;28;20251;-86
2023/02/07 08:16:39;;;;;;;12.25;8.48;;;-0.40;99.90;;;;;;5023752;28;20211;-86
2023/02/07 08:19:07;;;;;;;13.65;8.55;;;-0.30;99.90;;;;;;5043080;28;20255;-85
2023/02/07 08:21:34;;;;;;;15.13;8.80;;;-0.30;99.90;;;;;;5042990;28;20238;-87
2023/02/07 08:24:01;;;;;;;15.93;9.25;;;-0.30;99.90;;;;;;5038734;28;20235;-84
2023/02/07 08:26:28;;;;;;;16.70;8.90;;;-0.20;99.90;;;;;;5037721;28;20300;-86
2023/02/07 08:28:54;;;;;;;10.60;7.93;;;-0.20;99.90;;;;;;5037511;28;20279;-85
2023/02/07 08:31:21;;;;;;;14.07;8.85;;;-0.20;99.90;;;;;;5036298;28;20207;-86
2023/02/07 08:33:48;;;;;;;16.08;10.02;;;-0.10;99.90;;;;;;5038105;28;20372;-86
2023/02/07 08:36:16;;;;;;;17.60;9.05;;;-0.20;99.90;;;;;;5036934;28;20234;-84
2023/02/07 08:38:43;;;;;;;13.50;8.70;;;-0.10;99.90;;;;;;5037844;28;20271;-84
2023/02/07 08:41:10;;;;;;;12.85;8.27;;;0.00;99.90;;;;;;5038105;28;20233;-84
2023/02/07 08:43:37;;;;;;;13.23;8.30;;;0.00;99.90;;;;;;5038868;28;20215;-85
2023/02/07 08:46:06;;;;;;;15.60;9.43;;;0.10;99.90;;;;;;5038193;28;20276;-85
2023/02/07 08:48:33;;;;;;;10.52;7.35;;;0.10;99.90;;;;;;5038324;28;20296;-84
2023/02/07 08:51:04;;;;;;;13.93;8.80;;;0.20;99.90;;;;;;5037104;28;20277;-87
2023/02/07 08:53:33;;;;;;;16.73;9.02;;;0.20;99.90;;;;;;5036658;28;20300;-86
2023/02/07 08:56:00;;;;;;;13.45;8.45;;;0.20;99.90;;;;;;5038138;28;20232;-87
2023/02/07 08:58:27;;;;;;;16.05;9.75;;;0.20;99.90;;;;;;5037827;28;20264;-87
2023/02/07 09:00:54;;;;;;;12.15;8.27;;;0.30;99.90;;;;;;5037489;28;20694;-87
2023/02/07 09:03:21;;;;;;;16.70;8.65;;;0.30;99.90;;;;;;5036976;28;20253;-86
2023/02/07 09:05:48;;;;;;;16.02;8.73;;;0.50;99.90;;;;;;5036996;28;20234;-87
2023/02/07 09:08:15;;;;;;;17.17;10.43;;;0.50;99.90;;;;;;5036845;28;20230;-86
2023/02/07 09:10:44;;;;;;;15.10;8.93;;;0.60;99.90;;;;;;5037662;28;20205;-87
2023/02/07 09:13:10;;;;;;;16.55;8.63;;;0.70;99.90;;;;;;5037495;28;20244;-86
2023/02/07 09:15:37;;;;;;;14.07;8.77;;;0.70;99.90;;;;;;5039581;28;20607;-87
2023/02/07 09:18:05;;;;;;;14.93;9.10;;;0.80;99.90;;;;;;5037374;28;20251;-86
2023/02/07 09:20:31;;;;;;;12.43;9.07;;;0.80;99.90;;;;;;5038321;28;21009;-85
2023/02/07 09:25:45;;;;;;;13.95;8.93;;;1.10;99.90;;;;;;5038453;28;20212;-84
2023/02/07 09:28:11;;;;;;;12.65;8.65;;;1.20;99.90;;;;;;5037466;28;20291;-86
2023/02/07 09:30:41;;;;;;;15.70;7.63;;;1.30;99.90;;;;;;5037146;28;20288;-85
2023/02/07 09:33:08;;;;;;;9.02;6.93;;;1.40;99.90;;;;;;5037513;28;20676;-85
2023/02/07 09:35:37;;;;;;;7.88;6.25;;;1.50;99.90;;;;;;5037432;28;20245;-85
2023/02/07 09:38:04;;;;;;;13.40;7.22;;;1.60;96.90;;;;;;5039724;28;20253;-85
2023/02/07 09:40:33;;;;;;;13.30;7.20;;;1.60;93.50;;;;;;5037516;28;20270;-86
2023/02/07 09:43:11;;;;;;;10.02;7.60;;;1.70;99.90;;;;;;5036856;28;20453;-86
2023/02/07 09:45:40;;;;;;;12.93;6.07;;;1.70;99.90;;;;;;5036974;28;20648;-86
2023/02/07 09:48:15;;;;;;;9.60;6.13;;;1.90;23.70;;;;;;5036852;28;20352;-84
2023/02/07 09:50:47;;;;;;;10.93;6.38;;;1.90;15.70;;;;;;5035954;28;20495;-85
2023/02/07 09:53:16;;;;;;;12.10;6.40;;;1.90;1.00;;;;;;5036758;28;20210;-86
2023/02/07 09:55:49;;;;;;;6.53;5.10;;;2.00;6.40;;;;;;5036879;28;20480;-86
2023/02/07 09:58:22;;;;;;;11.30;6.20;;;2.20;18.00;;;;;;5037426;28;21065;-85
2023/02/07 10:00:58;;;;;;;10.53;6.03;;;2.20;1.00;;;;;;5035942;28;20488;-86
2023/02/07 10:03:28;;;;;;;10.17;7.47;;;2.30;1.00;;;;;;5036038;28;20491;-86
2023/02/07 10:05:59;;;;;;;11.30;6.03;;;2.50;1.00;;;;;;5036043;28;20862;-86
2023/02/07 10:08:26;;;;;;;7.97;6.07;;;2.70;1.00;;;;;;5035277;28;21029;-86
2023/02/07 10:11:13;;;;;;;8.37;5.87;;;2.70;1.00;;;;;;5034927;28;20539;-86
2023/02/07 10:13:56;;;;;;;9.53;5.83;;;2.60;1.00;;;;;;5034849;28;20562;-87
2023/02/07 10:16:38;;;;;;;6.70;5.40;;;2.50;1.00;;;;;;5035109;28;21065;-86
2023/02/07 10:19:14;;;;;;;7.70;5.23;;;2.40;1.00;;;;;;5034982;28;20536;-87
2023/02/07 10:21:48;;;;;;;8.13;5.47;;;2.70;1.00;;;;;;5035990;28;20444;-86
2023/02/07 10:24:34;;;;;;;10.10;6.60;;;3.50;31.80;;;;;;5036680;28;20463;-86
2023/02/07 10:27:06;;;;;;;8.10;5.03;;;4.30;1.00;;;;;;5036727;28;20536;-87
2023/02/07 10:29:48;;;;;;;8.70;4.60;;;4.80;1.00;;;;;;5037155;28;20520;-87
2023/02/07 10:32:20;;;;;;;7.70;5.43;;;4.30;99.90;;;;;;5052013;28;20456;-87
2023/02/07 10:34:48;;;;;;;9.00;4.90;;;4.70;1.00;;;;;;5044383;28;20449;-87
2023/02/07 10:37:19;;;;;;;8.03;4.37;;;5.30;1.00;;;;;;5035740;28;20488;-85
2023/02/07 10:39:51;;;;;;;6.13;4.63;;;5.30;99.90;;;;;;5034511;28;20499;-87
2023/02/07 10:42:19;;;;;;;6.70;3.90;;;5.20;99.90;;;;;;5039368;28;20543;-85
2023/02/07 10:44:47;;;;;;;4.87;4.23;;;5.40;99.90;;;;;;5040720;28;20491;-86
2023/02/07 10:47:16;;;;;;;4.97;3.43;;;6.60;1.00;;;;;;5040836;28;20485;-87
2023/02/07 10:49:46;;;;;;;5.10;3.50;;;8.00;1.00;;;;;;5040085;28;20511;-86
2023/02/07 10:52:26;;;;;;;5.20;3.03;;;9.20;1.00;;;;;;5041307;28;20975;-87
2023/02/07 10:54:55;;;;;;;5.60;3.20;;;11.20;1.00;;;;;;5042088;28;20475;-87
2023/02/07 10:57:22;;;;;;;4.27;3.30;;;12.60;1.00;;;;;;5041882;28;21051;-87
2023/02/07 10:59:58;;;;;;;6.07;3.20;;;14.30;1.00;;;;;;5041178;28;20576;-86
2023/02/07 11:02:48;;;;;;;6.50;4.13;;;15.90;1.00;;;;;;5040894;28;20487;-85
2023/02/07 11:05:37;;;;;;;4.30;3.37;;;17.10;1.00;;;;;;5040276;28;20463;-87
2023/02/07 11:08:06;;;;;;;3.90;3.50;;;17.40;1.00;;;;;;5041404;28;20475;-85
2023/02/07 11:10:36;;;;;;;4.80;3.33;;;18.00;1.00;;;;;;5021541;28;20967;-87
2023/02/07 11:13:05;;;;;;;8.33;3.30;;;19.50;1.00;;;;;;5022214;28;20494;-86
2023/02/07 11:15:40;;;;;;;4.37;2.97;;;20.20;1.00;;;;;;5022256;28;20543;-87
2023/02/07 11:18:08;;;;;;;4.70;3.50;;;21.20;1.00;;;;;;5022865;28;20541;-87
2023/02/07 11:20:38;;;;;;;4.20;3.13;;;21.80;1.00;;;;;;5021371;28;20474;-87
2023/02/07 11:23:10;;;;;;;8.70;4.90;;;22.70;1.00;;;;;;5032141;28;20823;-87
2023/02/07 11:25:40;;;;;;;5.00;2.87;;;23.00;1.00;;;;;;5041772;28;21069;-86
2023/02/07 11:28:15;;;;;;;5.10;3.47;;;23.60;1.00;;;;;;5041785;28;20491;-86
2023/02/07 11:30:43;;;;;;;3.13;2.83;;;23.60;1.00;;;;;;5041331;28;20490;-84
2023/02/07 11:33:18;;;;;;;3.90;3.33;;;24.30;1.00;;;;;;5044005;28;20533;-85
2023/02/07 11:36:09;;;;;;;4.10;3.70;;;24.40;1.00;;;;;;5042778;28;20456;-83
2023/02/07 11:38:39;;;;;;;3.80;3.37;;;23.90;1.00;;;;;;5040273;28;20524;-88
2023/02/07 11:41:06;;;;;;;3.60;3.00;;;24.20;1.00;;;;;;5038874;28;20461;-85
2023/02/07 11:43:34;;;;;;;3.63;2.70;;;25.00;1.00;;;;;;5041389;28;20469;-84
2023/02/07 11:46:07;;;;;;;4.70;3.80;;;25.00;1.00;;;;;;5042117;28;20519;-84
2023/02/07 11:48:38;;;;;;;3.47;3.17;;;24.60;1.00;;;;;;5065777;23;20845;-81
2023/02/07 11:51:09;;;;;;;3.33;3.03;;;25.90;1.00;;;;;;5014923;28;20465;-82
2023/02/07 11:53:39;;;;;;;4.20;3.40;;;26.00;1.00;;;;;;5015049;28;20952;-85
2023/02/07 11:56:17;;;;;;;3.33;2.83;;;25.50;1.00;;;;;;5015503;28;20972;-83
2023/02/07 11:58:46;;;;;;;4.93;3.13;;;25.60;1.00;;;;;;5015496;28;20493;-85
2023/02/07 12:01:17;;;;;;;5.97;3.27;;;24.70;1.00;;;;;;5015615;28;20465;-84
2023/02/07 12:03:51;;;;;;;4.20;3.00;;;26.10;1.00;;;;;;5016156;28;20493;-83
2023/02/07 12:06:21;;;;;;;4.67;3.63;;;27.20;1.00;;;;;;5015849;28;20504;-83
2023/02/07 12:08:51;;;;;;;4.63;3.37;;;27.50;1.00;;;;;;5015378;28;20482;-85
2023/02/07 12:11:24;;;;;;;4.63;3.97;;;26.50;1.00;;;;;;5016384;28;20553;-84
2023/02/07 12:13:55;;;;;;;4.93;4.33;;;23.60;1.00;;;;;;5007730;28;20453;-86
2023/02/07 12:16:28;;;;;;;4.63;4.00;;;24.10;1.00;;;;;;4996594;28;21028;-85
2023/02/07 12:19:02;;;;;;;6.23;3.70;;;24.50;1.00;;;;;;4996211;28;20592;-84
2023/02/07 12:21:37;;;;;;;5.30;3.97;;;23.60;1.00;;;;;;4999947;28;20542;-84
2023/02/07 12:24:10;;;;;;;5.83;4.33;;;24.00;1.00;;;;;;4998206;28;20552;-86
2023/02/07 12:26:43;;;;;;;3.87;3.43;;;24.20;1.00;;;;;;4998126;28;20543;-85
2023/02/07 12:29:23;;;;;;;4.27;3.73;;;24.80;1.00;;;;;;4997499;28;20502;-85
2023/02/07 12:32:00;;;;;;;4.33;3.63;;;25.80;1.00;;;;;;5000510;28;20462;-86
2023/02/07 12:34:33;;;;;;;4.57;4.17;;;26.20;1.00;;;;;;4999121;28;20456;-86
2023/02/07 12:37:12;;;;;;;6.03;3.80;;;25.50;1.00;;;;;;4999327;28;20482;-85
2023/02/07 12:39:45;;;;;;;4.43;4.00;;;25.80;1.00;;;;;;5000729;28;20494;-86
2023/02/07 12:42:27;;;;;;;4.10;3.70;;;25.60;1.00;;;;;;5012530;28;20443;-85
2023/02/07 12:44:57;;;;;;;4.00;3.70;;;23.70;1.00;;;;;;5018223;28;20450;-86
2023/02/07 12:47:43;;;;;;;5.10;4.03;;;22.20;1.00;;;;;;5026150;28;20473;-88
2023/02/07 12:50:23;;;;;;;4.43;3.77;;;20.90;1.00;;;;;;5028475;28;20477;-86
2023/02/07 12:53:03;;;;;;;5.60;4.10;;;19.90;1.00;;;;;;5024110;28;20556;-86
2023/02/07 12:55:42;;;;;;;5.60;4.67;;;19.80;1.00;;;;;;5025271;28;20464;-86
2023/02/07 12:58:24;;;;;;;5.53;4.40;;;18.50;1.00;;;;;;5024828;28;20461;-86
2023/02/07 13:00:57;;;;;;;4.13;3.53;;;17.60;1.00;;;;;;5029316;28;20488;-85
2023/02/07 13:03:41;;;;;;;4.23;3.70;;;17.80;1.00;;;;;;5017577;28;20527;-85